Aérodrome :
LOGIN :

S'inscrire | Disclaimer

   EN    FR    IT 

 










Légende :    VFR   VFR Marginal   IFR   IFR Intensif   IFR Très Intensif
Visi : 
Plafond : 
>= 8 km
>= 3000ft
5 à 8 km
1000 à 3000 ft
1500m à 5 km
500 à 1000 ft
800 à 1500m
200 à 500 ft
< 800m
< 200 ft
Symboles :   Orages  Brouillard  Fortes neiges  Fortes précipitations  Vent > 20 kt
SIGMETs :   Divers  Orages  Givrage  Turbulence  Onde Orograph.  Cendres Volcan.







- Altitude de l'aérodrome : 876 ft
- Code IATA : MBX


LJMB - Maribor

DERNIER METAR :
  • 151200Z 34014KT 9999 -RA OVC023 05/03 Q1000 RERA

METARs EXPIRÉS :
  • 151130Z 35013KT 7000 RA OVC022 06/04 Q0999
  • 151100Z 01012KT 8000 -RA OVC028 06/05 Q0999 RERA
  • 151030Z 01009KT 9999 -RA BKN038 07/05 Q0999
  • 151000Z 34007KT 9999 -RA BKN046 08/05 Q0999
  • 150930Z 32005KT 280V340 9999 BKN048 08/05 Q0998

TAF TAF LJMB
Valide du 15 à 12h jusqu'au 16 à 12h UTC


151100Z 1512/1612 01008KT 9999 SCT030 BKN070
TEMPO 1512/1515 5000 -RA BR BKN030 OVC050
BECMG 1515/1518 3500 RA BR BKN020 OVC030
BECMG 1518/1521 2500 SN BKN010 OVC020
BECMG 1600/1603 36005KT 4500 -SN BR SCT010 OVC020
BECMG 1603/1606 9999 NSW FEW010 BKN080
TEMPO 1606/1612 18004KT
Pas de NOTAMs connus pour ce terrain.
2 SIGMETs publiés pour la FIR Ljubljana (LJLA) :
 
Orages noyés dans la masse
LJLA SIGMET 4 VALID 151115/151200 LJLJ
LJLA LJUBLJANA FIR EMBD TS OBS N4545 E01411 TOP FL300 MOV NE 10KT NC=
Turbulence forte
LJLA SIGMET 3 VALID 151100/151300 LJLJ
LJLA LJUBLJANA FIR SEV TURB FCST ENTIRE FIR 2000/10000FT STNR NC=



MET'MAP, la Météo Aéronautique d'un coup d'oeil ! - Copyright ORBIFLY Décembre 2007 - Disclaimer

ORBIFLY MET'MAP TEAM :

Programmation & Développement : Alexandra Zaïnal
Conception & Développement : Baudouin d'Aumeries
Co-Programmation & Développement : Marc-Olivier Méhu
Soutien technique & logistique : Manuel Goepfert

Contact : metmap@orbifly.com




SOURCES & CREDITS :

   NOAA